Time;durP1;ratioP1;P1;durP2;ratioP2;P2;SDS_P1;SDS_P2;PMS_P1;PMS_P2;Temp;Humidity;BMP_temperature;BMP_pressure;BME280_temperature;BME280_humidity;BME280_pressure;Samples;Min_cycle;Max_cycle;Signal;HPM_P1;HPM_P2
2021/06/28 00:00:12;;;;;;;16.10;14.40;;;;;;;16.78;67.16;100385.03;2017148;88;27716;-65
2021/06/28 00:03:16;;;;;;;14.00;12.60;;;;;;;16.75;67.22;100384.41;2016849;87;27538;-65
2021/06/28 00:06:18;;;;;;;15.05;12.98;;;;;;;16.70;67.25;100380.70;2017039;88;31109;-66
2021/06/28 00:09:20;;;;;;;15.05;13.45;;;;;;;16.65;67.37;100387.77;2015315;87;33198;-66
2021/06/28 00:12:21;;;;;;;18.82;14.23;;;;;;;16.60;67.43;100387.27;2013951;87;30152;-65
2021/06/28 00:15:28;;;;;;;17.12;14.05;;;;;;;16.57;67.67;100388.84;2014102;88;27585;-65
2021/06/28 00:18:30;;;;;;;15.43;12.65;;;;;;;16.52;67.75;100386.48;2013947;88;29537;-65
2021/06/28 00:21:32;;;;;;;16.60;13.72;;;;;;;16.48;67.86;100386.80;2013874;88;31041;-65
2021/06/28 00:24:34;;;;;;;19.30;14.40;;;;;;;16.44;67.91;100383.47;2013884;88;33863;-65
2021/06/28 00:27:37;;;;;;;17.35;13.85;;;;;;;16.40;68.00;100381.95;2013906;88;29374;-65
2021/06/28 00:30:42;;;;;;;16.00;13.58;;;;;;;16.36;68.12;100386.73;2014015;88;27535;-65
2021/06/28 00:33:43;;;;;;;15.30;13.70;;;;;;;16.33;68.13;100391.00;2014028;88;28701;-65
2021/06/28 00:36:45;;;;;;;14.05;12.60;;;;;;;16.28;68.28;100388.26;2013895;87;31006;-65
2021/06/28 00:39:47;;;;;;;16.45;13.38;;;;;;;16.25;68.51;100387.50;2013595;88;33992;-65
2021/06/28 00:42:49;;;;;;;16.67;13.22;;;;;;;16.20;68.52;100389.69;2013905;88;29408;-65
2021/06/28 00:45:50;;;;;;;17.85;13.13;;;;;;;16.18;68.78;100385.35;2014011;87;27538;-65
2021/06/28 00:48:52;;;;;;;15.70;13.88;;;;;;;16.15;68.67;100386.92;2013950;87;28593;-65
2021/06/28 00:51:56;;;;;;;14.50;12.98;;;;;;;16.12;68.68;100392.57;2013849;88;31090;-65
2021/06/28 00:54:57;;;;;;;15.60;13.58;;;;;;;16.07;68.55;100399.16;2013590;88;33073;-66
2021/06/28 00:58:00;;;;;;;16.52;13.55;;;;;;;16.03;68.82;100401.70;2013995;87;29312;-66
2021/06/28 01:01:01;;;;;;;14.13;12.65;;;;;;;16.01;68.93;100401.44;2014013;87;27518;-65
2021/06/28 01:04:04;;;;;;;14.60;12.33;;;;;;;15.97;68.96;100403.97;2013859;88;28589;-66
2021/06/28 01:07:05;;;;;;;14.93;13.32;;;;;;;15.94;69.17;100408.61;2013900;87;31066;-65
2021/06/28 01:10:10;;;;;;;17.57;14.73;;;;;;;15.91;69.17;100405.27;2022703;87;33103;-65
2021/06/28 01:13:12;;;;;;;15.18;12.78;;;;;;;15.89;69.30;100408.06;2028054;87;29686;-65
2021/06/28 01:16:13;;;;;;;17.82;13.93;;;;;;;15.87;69.36;100402.40;2028252;87;27612;-64
2021/06/28 01:19:17;;;;;;;22.20;13.68;;;;;;;15.84;69.34;100402.58;2028214;87;28715;-65
2021/06/28 01:22:20;;;;;;;14.95;12.58;;;;;;;15.81;69.27;100402.32;2028187;87;31878;-65
2021/06/28 01:25:25;;;;;;;15.85;14.25;;;;;;;15.77;69.52;100396.28;2028303;87;32506;-65
2021/06/28 01:28:27;;;;;;;;;;;;;;;15.75;69.58;100401.38;2030852;87;29348;-65
2021/06/28 01:31:29;;;;;;;17.23;13.35;;;;;;;15.72;69.93;100402.48;2028487;87;27542;-64
2021/06/28 01:34:31;;;;;;;15.03;12.60;;;;;;;15.70;70.09;100405.77;2028117;87;28710;-65
2021/06/28 01:37:32;;;;;;;16.97;13.43;;;;;;;15.68;70.01;100402.30;2028340;87;30706;-65
2021/06/28 01:40:35;;;;;;;16.73;14.47;;;;;;;15.65;70.17;100393.94;2028341;87;33791;-65
2021/06/28 01:43:37;;;;;;;15.83;13.00;;;;;;;15.62;70.25;100392.80;2028474;87;29402;-65
2021/06/28 01:46:38;;;;;;;20.40;12.85;;;;;;;15.61;70.39;100390.22;2028482;87;27841;-65
2021/06/28 01:49:41;;;;;;;15.13;12.50;;;;;;;15.58;70.32;100389.92;2028496;87;28637;-65
2021/06/28 01:52:43;;;;;;;13.95;12.35;;;;;;;15.56;70.34;100392.36;2028345;87;30999;-65
2021/06/28 01:55:45;;;;;;;14.63;12.98;;;;;;;15.55;70.44;100389.28;2028304;87;33011;-65
2021/06/28 01:58:47;;;;;;;14.38;12.88;;;;;;;15.52;70.42;100391.72;2028484;87;29382;-65
2021/06/28 02:01:49;;;;;;;14.85;13.20;;;;;;;15.50;70.52;100389.61;2028593;87;27580;-65
2021/06/28 02:04:51;;;;;;;14.35;12.80;;;;;;;15.47;70.51;100388.45;2028357;87;28592;-65
2021/06/28 02:07:53;;;;;;;14.85;13.32;;;;;;;15.45;70.61;100389.92;2028422;87;30999;-65
2021/06/28 02:10:59;;;;;;;19.07;13.50;;;;;;;15.43;70.54;100389.63;2020880;87;33096;-65
2021/06/28 02:14:01;;;;;;;16.90;13.95;;;;;;;15.43;70.74;100389.63;2019149;88;29456;-66
2021/06/28 02:17:03;;;;;;;17.32;13.78;;;;;;;15.42;70.84;100391.48;2019197;88;27489;-65
2021/06/28 02:20:06;;;;;;;18.70;14.00;;;;;;;15.41;70.85;100392.45;2019147;88;28794;-65
2021/06/28 02:23:22;;;;;;;15.53;13.65;;;;;;;15.41;71.04;100388.88;2019088;88;31907;-65
2021/06/28 02:26:24;;;;;;;20.88;13.83;;;;;;;15.41;71.03;100387.05;2019118;88;33725;-66
2021/06/28 02:29:26;;;;;;;16.50;14.20;;;;;;;15.43;71.12;100381.53;2019116;88;29321;-65
2021/06/28 02:32:28;;;;;;;15.78;14.07;;;;;;;15.44;71.19;100381.45;2019051;88;27568;-65
2021/06/28 02:35:30;;;;;;;14.68;12.93;;;;;;;15.45;71.23;100381.83;2018807;88;28854;-65
2021/06/28 02:38:32;;;;;;;14.65;13.08;;;;;;;15.45;71.21;100380.48;2019093;88;31308;-65
2021/06/28 02:41:35;;;;;;;18.02;12.65;;;;;;;15.46;71.37;100375.46;2019332;87;33036;-65
2021/06/28 02:44:37;;;;;;;14.35;12.60;;;;;;;15.47;71.26;100373.61;2019131;88;29363;-65
2021/06/28 02:47:38;;;;;;;17.45;14.13;;;;;;;15.49;71.32;100374.38;2019205;87;27542;-65
2021/06/28 02:50:41;;;;;;;16.90;13.65;;;;;;;15.50;71.28;100367.50;2019338;88;28620;-67
2021/06/28 02:53:43;;;;;;;16.20;13.83;;;;;;;15.54;71.31;100366.83;2019126;87;31007;-65
2021/06/28 02:56:45;;;;;;;16.00;14.15;;;;;;;15.58;71.36;100368.81;2019173;87;33033;-65
2021/06/28 02:59:47;;;;;;;15.70;13.18;;;;;;;15.60;71.42;100367.73;2019138;87;29384;-65
2021/06/28 03:02:50;;;;;;;17.02;13.40;;;;;;;15.64;71.39;100369.25;2019224;87;27556;-65
2021/06/28 03:05:52;;;;;;;17.32;13.80;;;;;;;15.70;71.38;100363.05;2028473;86;28786;-64
2021/06/28 03:08:53;;;;;;;17.48;14.20;;;;;;;15.72;71.31;100359.77;2012807;86;31036;-65
2021/06/28 03:11:55;;;;;;;16.77;14.63;;;;;;;15.78;71.31;100356.61;1994973;88;32997;-65
2021/06/28 03:14:57;;;;;;;18.42;14.18;;;;;;;15.84;71.28;100353.48;2002802;86;29521;-66
2021/06/28 03:17:59;;;;;;;19.30;15.35;;;;;;;15.89;71.40;100362.13;2051170;86;27683;-70
2021/06/28 03:21:03;;;;;;;18.62;14.20;;;;;;;15.93;71.23;100362.30;2051125;86;29427;-66
2021/06/28 03:24:05;;;;;;;19.70;15.38;;;;;;;15.99;71.12;100364.20;2051101;86;31205;-69
2021/06/28 03:27:07;;;;;;;18.82;14.70;;;;;;;16.03;71.04;100361.66;2044467;86;33066;-66
2021/06/28 03:30:12;;;;;;;20.37;14.50;;;;;;;16.09;71.05;100370.19;2051104;86;30015;-68
2021/06/28 03:33:14;;;;;;;17.12;14.53;;;;;;;16.15;71.00;100372.94;2051196;86;27480;-66
2021/06/28 03:36:16;;;;;;;17.80;14.28;;;;;;;16.22;70.89;100373.35;2047211;86;29411;-67
2021/06/28 03:39:17;;;;;;;23.40;14.43;;;;;;;16.29;70.89;100371.06;2051094;86;31042;-67
2021/06/28 03:42:22;;;;;;;18.73;14.43;;;;;;;16.34;70.71;100373.80;2051069;86;33157;-68
2021/06/28 03:45:24;;;;;;;18.37;15.10;;;;;;;16.38;70.58;100380.72;2039097;86;29351;-68
2021/06/28 03:48:26;;;;;;;17.42;14.60;;;;;;;16.43;70.59;100372.77;1995008;88;27606;-67
2021/06/28 03:51:28;;;;;;;17.32;14.85;;;;;;;16.47;70.51;100372.90;1994859;88;29440;-67
2021/06/28 03:54:29;;;;;;;19.48;13.62;;;;;;;16.52;70.46;100378.38;1994944;88;31955;-69
2021/06/28 03:57:32;;;;;;;19.85;13.93;;;;;;;16.61;70.51;100378.66;1998140;86;32993;-67
2021/06/28 04:00:34;;;;;;;18.12;14.85;;;;;;;16.71;70.49;100383.27;1994838;88;30093;-67
2021/06/28 04:03:37;;;;;;;19.27;14.80;;;;;;;16.81;70.32;100383.92;1994636;88;27540;-67
2021/06/28 04:06:39;;;;;;;24.10;15.43;;;;;;;16.92;70.22;100388.06;2027469;86;28623;-67
2021/06/28 04:09:41;;;;;;;20.10;15.58;;;;;;;17.03;70.08;100386.41;2007593;86;31161;-67
2021/06/28 04:12:45;;;;;;;22.80;15.98;;;;;;;17.11;69.82;100394.33;1999671;87;33010;-68
2021/06/28 04:15:47;;;;;;;24.20;17.02;;;;;;;17.21;69.58;100401.77;2033896;86;30120;-72
2021/06/28 04:18:49;;;;;;;22.10;16.55;;;;;;;17.33;69.55;100402.18;2059173;86;27519;-72
2021/06/28 04:21:51;;;;;;;22.82;16.62;;;;;;;17.47;69.44;100395.68;2053464;86;28614;-70
2021/06/28 04:24:52;;;;;;;21.68;16.42;;;;;;;17.67;69.30;100389.20;2059724;86;31680;-65
2021/06/28 04:27:54;;;;;;;16.97;14.10;;;;;;;17.86;69.29;100394.06;2056321;86;33019;-65
2021/06/28 04:30:57;;;;;;;24.27;15.68;;;;;;;18.05;68.68;100398.91;2056300;86;30038;-65
2021/06/28 04:33:59;;;;;;;19.32;14.10;;;;;;;18.23;68.59;100389.78;2018844;86;27568;-64
2021/06/28 04:37:01;;;;;;;21.75;14.05;;;;;;;18.40;68.36;100391.14;2058749;86;28710;-65
2021/06/28 04:40:09;;;;;;;16.45;14.45;;;;;;;18.62;68.11;100389.36;2059065;86;30994;-64
2021/06/28 04:43:11;;;;;;;21.15;14.28;;;;;;;18.83;67.51;100390.81;2019966;86;33120;-65
2021/06/28 04:46:13;;;;;;;21.55;14.33;;;;;;;19.08;67.35;100390.14;2008180;87;29379;-77
2021/06/28 04:49:15;;;;;;;16.67;13.83;;;;;;;19.27;66.78;100386.74;2008208;88;27499;-69
2021/06/28 04:52:16;;;;;;;19.40;12.93;;;;;;;19.56;66.53;100378.78;2008005;86;28542;-68
2021/06/28 04:55:20;;;;;;;23.30;13.10;;;;;;;19.77;65.92;100382.00;1999554;88;32146;-65
2021/06/28 04:58:21;;;;;;;20.15;13.15;;;;;;;19.89;65.46;100379.59;1999508;88;33897;-64
2021/06/28 05:01:23;;;;;;;18.17;12.37;;;;;;;20.09;65.47;100378.84;2025513;86;29554;-64
2021/06/28 05:04:26;;;;;;;22.00;13.10;;;;;;;20.30;64.96;100374.70;2059036;86;27599;-65
2021/06/28 05:07:28;;;;;;;19.05;12.43;;;;;;;20.59;64.93;100380.23;2056000;86;29268;-66
2021/06/28 05:10:30;;;;;;;15.78;11.70;;;;;;;21.00;64.36;100377.95;2055488;86;31221;-67
2021/06/28 05:13:32;;;;;;;18.48;12.40;;;;;;;21.54;63.67;100380.59;2047642;86;33771;-69
2021/06/28 05:16:34;;;;;;;13.15;11.83;;;;;;;22.12;63.01;100380.61;2047651;87;29370;-69
2021/06/28 05:19:36;;;;;;;15.00;10.98;;;;;;;22.86;62.52;100380.66;2034867;87;27521;-69
2021/06/28 05:22:40;;;;;;;13.65;10.75;;;;;;;23.72;60.95;100376.48;2047684;87;29708;-69
2021/06/28 05:25:42;;;;;;;11.83;10.67;;;;;;;24.74;59.41;100375.81;2047890;86;31830;-70
2021/06/28 05:28:44;;;;;;;12.30;10.75;;;;;;;25.27;56.82;100377.80;2044651;87;32361;-69
2021/06/28 05:31:46;;;;;;;11.25;10.05;;;;;;;25.63;56.51;100373.36;2047685;87;29362;-70
2021/06/28 05:34:49;;;;;;;16.40;10.55;;;;;;;26.00;55.32;100377.92;2047758;87;27513;-70
2021/06/28 05:37:50;;;;;;;13.20;10.53;;;;;;;26.51;55.44;100368.49;2029765;86;28623;-70
2021/06/28 05:40:52;;;;;;;14.63;10.45;;;;;;;27.07;54.27;100372.98;1995280;89;32590;-69
2021/06/28 05:43:54;;;;;;;13.32;10.05;;;;;;;27.31;53.87;100380.19;1994604;89;33724;-69
2021/06/28 05:46:56;;;;;;;11.40;10.30;;;;;;;27.88;52.21;100380.20;1995796;87;29308;-71
2021/06/28 05:49:58;;;;;;;14.43;11.15;;;;;;;28.33;52.05;100374.73;1996170;87;27524;-71
2021/06/28 05:53:02;;;;;;;14.35;10.63;;;;;;;28.53;51.19;100376.89;1994661;89;28336;-71
2021/06/28 05:56:04;;;;;;;14.38;10.68;;;;;;;28.73;50.31;100377.16;1994750;89;30961;-71
2021/06/28 05:59:06;;;;;;;14.43;11.05;;;;;;;28.87;49.69;100386.45;2033427;87;32531;-72
2021/06/28 06:02:08;;;;;;;12.85;10.30;;;;;;;29.16;49.13;100383.25;2047876;86;29311;-70
2021/06/28 06:05:12;;;;;;;17.02;10.08;;;;;;;29.45;48.24;100383.34;2044772;87;27526;-72
2021/06/28 06:08:15;;;;;;;12.23;9.78;;;;;;;29.77;47.30;100388.81;2047653;87;28625;-71
2021/06/28 06:11:18;;;;;;;15.50;10.40;;;;;;;30.06;46.84;100390.19;2056582;85;31068;-72
2021/06/28 06:14:22;;;;;;;22.93;11.20;;;;;;;30.19;46.17;100386.66;2032130;87;33656;-72
2021/06/28 06:17:24;;;;;;;20.48;10.35;;;;;;;30.15;44.91;100388.98;1991278;89;29351;-72
2021/06/28 06:20:26;;;;;;;14.07;9.63;;;;;;;29.96;45.28;100396.07;1991372;89;27527;-72
2021/06/28 06:23:28;;;;;;;12.18;10.05;;;;;;;29.70;44.86;100397.02;1991291;89;28696;-72
2021/06/28 06:26:30;;;;;;;10.58;8.58;;;;;;;29.58;44.85;100398.62;1994309;87;31857;-72
2021/06/28 06:29:31;;;;;;;11.03;8.68;;;;;;;29.50;44.22;100401.55;2016604;87;33006;-71
2021/06/28 06:32:33;;;;;;;24.67;9.30;;;;;;;29.47;44.24;100400.02;2056210;86;29345;-71
2021/06/28 06:35:35;;;;;;;17.30;7.87;;;;;;;29.52;44.50;100400.83;2035336;87;27596;-72
2021/06/28 06:38:37;;;;;;;21.80;8.30;;;;;;;30.02;44.28;100404.94;2056481;86;28560;-72
2021/06/28 06:41:39;;;;;;;17.45;7.67;;;;;;;30.67;43.31;100401.08;2038251;86;30483;-72
2021/06/28 06:44:41;;;;;;;9.80;6.78;;;;;;;31.24;42.16;100406.35;2054240;86;32935;-73
2021/06/28 06:47:44;;;;;;;17.85;7.55;;;;;;;31.77;41.07;100400.04;2000298;87;29896;-72
2021/06/28 06:50:46;;;;;;;11.97;7.40;;;;;;;32.37;40.91;100402.70;2014427;88;27521;-72
2021/06/28 06:53:47;;;;;;;13.38;6.78;;;;;;;32.91;39.94;100409.98;2011515;88;28822;-73
2021/06/28 06:56:49;;;;;;;9.60;6.58;;;;;;;33.18;39.46;100417.07;2018202;87;31955;-73
2021/06/28 06:59:51;;;;;;;7.12;6.28;;;;;;;33.40;39.15;100421.44;2038226;86;32954;-73
2021/06/28 07:02:54;;;;;;;14.13;6.15;;;;;;;33.56;38.75;100426.44;1999213;87;29339;-71
2021/06/28 07:05:56;;;;;;;9.90;6.28;;;;;;;33.73;38.12;100421.70;2047979;86;27547;-71
2021/06/28 07:08:58;;;;;;;12.07;6.83;;;;;;;33.78;37.50;100431.05;2043780;87;28681;-73
2021/06/28 07:12:00;;;;;;;9.33;5.65;;;;;;;33.88;36.96;100434.71;2056191;84;31008;-71
2021/06/28 07:15:02;;;;;;;8.93;5.70;;;;;;;34.06;36.71;100429.78;2034480;86;33006;-72
2021/06/28 07:18:13;;;;;;;8.13;5.53;;;;;;;34.19;36.22;100432.94;2056404;86;30043;-72
2021/06/28 07:21:21;;;;;;;9.30;7.03;;;;;;;34.08;35.74;100433.70;2054096;86;27516;-73
2021/06/28 07:24:32;;;;;;;12.37;7.15;;;;;;;33.97;35.80;100438.64;2029638;87;28788;-72
2021/06/28 07:27:45;;;;;;;14.43;7.25;;;;;;;33.92;35.61;100447.12;2014287;88;31018;-72
2021/06/28 07:30:57;;;;;;;10.38;7.78;;;;;;;33.79;35.29;100441.66;2011677;88;33058;-72
2021/06/28 07:34:18;;;;;;;8.78;7.47;;;;;;;33.62;35.23;100442.73;1995525;87;29310;-71
2021/06/28 07:37:23;;;;;;;17.02;8.73;;;;;;;33.56;35.38;100442.27;1991110;89;28010;-72
2021/06/28 07:40:30;;;;;;;11.22;7.50;;;;;;;33.54;35.30;100440.25;2009684;86;28695;-73
2021/06/28 07:43:32;;;;;;;11.53;7.78;;;;;;;33.42;35.57;100435.43;1980406;89;31796;-71
2021/06/28 07:46:35;;;;;;;12.88;7.87;;;;;;;33.26;35.67;100440.10;2051445;86;33003;-72
2021/06/28 07:49:36;;;;;;;12.95;8.15;;;;;;;33.11;35.72;100435.68;2040465;87;29309;-71
2021/06/28 07:52:40;;;;;;;10.93;8.48;;;;;;;33.05;35.35;100431.04;2056519;86;27688;-71
2021/06/28 07:55:43;;;;;;;15.23;7.17;;;;;;;32.99;35.64;100426.36;2012158;86;28616;-72
2021/06/28 07:58:49;;;;;;;11.28;8.48;;;;;;;32.98;35.88;100427.44;2046915;86;32421;-71
2021/06/28 08:01:51;;;;;;;11.73;7.17;;;;;;;32.89;35.53;100425.45;2043683;87;32936;-73
2021/06/28 08:04:53;;;;;;;12.90;7.08;;;;;;;32.81;35.16;100423.78;2054201;86;29332;-70
2021/06/28 08:07:55;;;;;;;15.72;13.25;;;;;;;32.78;34.99;100420.03;2038259;87;27564;-71
2021/06/28 08:10:56;;;;;;;13.08;8.70;;;;;;;32.80;35.02;100424.82;2038415;86;28609;-72
2021/06/28 08:14:00;;;;;;;9.18;7.22;;;;;;;32.95;34.90;100414.86;2062370;86;31070;-69
2021/06/28 08:17:02;;;;;;;9.03;7.10;;;;;;;33.28;34.37;100409.64;1990913;87;33288;-70
2021/06/28 08:20:06;;;;;;;11.88;6.78;;;;;;;33.53;34.30;100413.55;1985374;88;29466;-70
2021/06/28 08:23:13;;;;;;;14.55;8.20;;;;;;;33.85;34.13;100410.70;1988969;87;27551;-70
2021/06/28 08:26:25;;;;;;;7.92;6.92;;;;;;;34.16;33.99;100403.36;2001421;88;27565;-71
2021/06/28 08:29:30;;;;;;;9.80;6.30;;;;;;;34.67;33.26;100399.88;2019521;88;31115;-70
2021/06/28 08:32:32;;;;;;;8.03;6.15;;;;;;;35.09;32.96;100399.98;2019815;86;32903;-71
2021/06/28 08:35:34;;;;;;;8.48;6.33;;;;;;;35.43;32.27;100405.02;2019390;88;30174;-71
2021/06/28 08:38:36;;;;;;;5.42;4.90;;;;;;;35.67;31.63;100396.19;2019453;87;27549;-70
2021/06/28 08:41:42;;;;;;;6.80;4.58;;;;;;;35.93;31.82;100397.34;2021947;86;29460;-69
2021/06/28 08:44:45;;;;;;;5.50;5.00;;;;;;;36.19;32.00;100396.02;2019494;88;31098;-69
2021/06/28 08:47:46;;;;;;;7.13;5.33;;;;;;;36.40;31.17;100403.45;2019703;87;33051;-70
2021/06/28 08:50:48;;;;;;;4.92;4.50;;;;;;;36.49;30.18;100399.20;2019400;87;29300;-70
2021/06/28 08:53:54;;;;;;;7.30;4.55;;;;;;;36.49;29.81;100396.41;2029521;86;27528;-69
2021/06/28 08:56:54;;;;;;;5.37;4.15;;;;;;;36.56;29.21;100394.33;2062060;86;28630;-69
2021/06/28 08:59:56;;;;;;;7.20;4.12;;;;;;;36.57;28.61;100397.42;2062283;86;31000;-70
2021/06/28 09:03:05;;;;;;;5.70;4.37;;;;;;;36.73;29.03;100394.41;2059590;86;32962;-70
2021/06/28 09:06:09;;;;;;;8.98;4.78;;;;;;;36.98;27.99;100391.83;2062294;85;29465;-69
2021/06/28 09:09:13;;;;;;;4.95;4.45;;;;;;;37.12;27.53;100389.59;2062340;85;27544;-69
2021/06/28 09:12:17;;;;;;;7.30;5.72;;;;;;;37.19;28.02;100393.61;2052600;86;28624;-69
2021/06/28 09:15:33;;;;;;;4.70;4.30;;;;;;;37.24;27.82;100400.13;2056455;86;30694;-69
2021/06/28 09:18:35;;;;;;;5.03;4.62;;;;;;;37.19;27.81;100393.05;2038196;87;32986;-69
2021/06/28 09:21:51;;;;;;;6.03;4.67;;;;;;;37.02;26.91;100383.26;2027450;86;29486;-69
2021/06/28 09:24:54;;;;;;;4.72;4.37;;;;;;;36.79;27.68;100393.96;1990993;89;27516;-69
2021/06/28 09:27:56;;;;;;;5.17;4.33;;;;;;;36.48;26.76;100396.97;1991140;89;29474;-69
2021/06/28 09:30:58;;;;;;;14.23;4.90;;;;;;;36.01;26.40;100388.66;2012032;86;31947;-69
2021/06/28 09:34:29;;;;;;;6.67;5.78;;;;;;;35.50;27.03;100389.63;1980349;89;33107;-68
2021/06/28 09:37:42;;;;;;;5.53;3.77;;;;;;;35.27;27.20;100391.27;2036997;86;29330;-68
2021/06/28 09:40:50;;;;;;;4.40;4.10;;;;;;;35.17;27.31;100392.37;2060023;86;27560;-68
2021/06/28 09:44:02;;;;;;;8.63;4.25;;;;;;;35.09;27.79;100384.67;2014236;88;28621;-69
2021/06/28 09:47:23;;;;;;;6.33;4.85;;;;;;;35.12;27.67;100388.91;1997009;87;32038;-68
2021/06/28 09:50:40;;;;;;;9.08;4.87;;;;;;;35.14;26.95;100395.95;1969229;88;49820;-69
2021/06/28 09:53:44;;;;;;;5.87;3.80;;;;;;;34.93;26.44;100391.75;1987048;89;27555;-68
2021/06/28 09:56:52;;;;;;;5.45;4.92;;;;;;;34.80;27.33;100389.99;1995719;87;27528;-70
2021/06/28 09:59:54;;;;;;;6.15;3.98;;;;;;;34.80;27.23;100400.26;2028077;86;29260;-67
2021/06/28 10:02:56;;;;;;;8.83;5.97;;;;;;;34.66;27.19;100392.09;2038094;87;31080;-68
2021/06/28 10:06:16;;;;;;;4.85;4.45;;;;;;;34.47;26.43;100398.23;2056585;86;32991;-69
2021/06/28 10:09:16;;;;;;;3.92;3.55;;;;;;;34.19;27.18;100394.02;2034689;86;29391;-68
2021/06/28 10:12:20;;;;;;;4.90;3.80;;;;;;;34.07;26.98;100398.12;2056393;86;27585;-69
2021/06/28 10:15:25;;;;;;;4.28;3.87;;;;;;;33.96;27.06;100397.47;2038412;86;28691;-68
2021/06/28 10:18:26;;;;;;;4.40;3.98;;;;;;;33.88;27.54;100393.58;2054250;86;30499;-68
2021/06/28 10:21:29;;;;;;;6.95;3.33;;;;;;;33.69;27.38;100401.87;2027991;87;32965;-67
2021/06/28 10:24:31;;;;;;;4.12;3.50;;;;;;;33.52;27.83;100394.62;2014379;88;30207;-66
2021/06/28 10:27:35;;;;;;;4.47;3.22;;;;;;;33.36;27.71;100395.19;2011502;88;27565;-67
2021/06/28 10:30:37;;;;;;;5.90;3.22;;;;;;;33.26;28.31;100406.78;1994191;89;28845;-67
2021/06/28 10:33:40;;;;;;;2.70;2.50;;;;;;;33.18;28.10;100399.03;2030690;87;31012;-68
2021/06/28 10:36:42;;;;;;;2.60;2.40;;;;;;;33.15;27.79;100391.69;2054403;86;32998;-68
2021/06/28 10:39:46;;;;;;;5.10;2.60;;;;;;;33.07;27.30;100391.42;2038369;86;29305;-67
2021/06/28 10:42:57;;;;;;;2.50;2.30;;;;;;;32.86;27.00;100389.81;2013858;86;27488;-67
2021/06/28 10:46:03;;;;;;;2.72;2.50;;;;;;;32.61;27.70;100389.17;2038378;87;29526;-69
2021/06/28 10:49:06;;;;;;;3.65;3.00;;;;;;;32.48;27.79;100385.08;2024477;86;31014;-70
2021/06/28 10:52:08;;;;;;;4.25;3.20;;;;;;;32.35;27.80;100378.48;1980556;89;32925;-68
2021/06/28 10:55:21;;;;;;;5.83;2.95;;;;;;;32.18;27.35;100378.09;1991282;89;30102;-69
2021/06/28 10:58:26;;;;;;;4.03;3.35;;;;;;;31.94;27.97;100382.42;1983686;87;27556;-69
2021/06/28 11:01:44;;;;;;;2.35;2.17;;;;;;;31.74;28.11;100378.30;1991020;89;28845;-70
2021/06/28 11:05:03;;;;;;;7.22;4.53;;;;;;;31.52;29.00;100378.48;1985502;89;31070;-69
2021/06/28 11:08:26;;;;;;;4.35;3.83;;;;;;;31.31;28.82;100377.61;2043533;86;33769;-69
2021/06/28 11:12:17;;;;;;;7.05;6.30;;;;;;;31.02;28.15;100366.39;2043987;87;29292;-69
2021/06/28 11:15:29;;;;;;;2.87;2.60;;;;;;;30.81;28.88;100368.77;1995032;88;27758;-68
2021/06/28 11:18:31;;;;;;;4.33;3.02;;;;;;;30.71;30.09;100375.55;2022563;88;28676;-68
2021/06/28 11:21:41;;;;;;;4.10;3.62;;;;;;;30.61;30.39;100373.72;2024681;88;31148;-69
2021/06/28 11:24:48;;;;;;;4.92;3.90;;;;;;;30.52;29.98;100365.23;2024283;87;33193;-68
2021/06/28 11:28:04;;;;;;;3.87;3.37;;;;;;;30.40;30.70;100364.45;2006141;88;30416;-69
2021/06/28 11:31:10;;;;;;;3.62;2.10;;;;;;;30.37;30.93;100361.23;1948132;91;27618;-69
2021/06/28 11:34:12;;;;;;;2.90;2.58;;;;;;;30.30;31.69;100361.20;1958532;90;29576;-69
2021/06/28 11:37:14;;;;;;;2.87;2.58;;;;;;;30.25;31.97;100360.98;1925659;89;31848;-69
2021/06/28 11:40:15;;;;;;;3.35;3.10;;;;;;;30.19;31.39;100359.89;1932584;91;33888;-69
2021/06/28 11:43:39;;;;;;;3.50;3.20;;;;;;;30.16;31.48;100350.62;1958390;90;29355;-68
2021/06/28 11:46:47;;;;;;;3.90;3.58;;;;;;;30.16;31.94;100347.32;1959410;89;27537;-69
2021/06/28 11:49:49;;;;;;;3.95;3.58;;;;;;;30.18;31.95;100339.36;1998257;88;28680;-68
2021/06/28 11:53:09;;;;;;;10.00;3.58;;;;;;;30.19;31.38;100341.06;1998462;89;31020;-68
2021/06/28 11:56:20;;;;;;;4.33;3.92;;;;;;;30.22;31.99;100335.13;2024130;87;32937;-67
2021/06/28 11:59:24;;;;;;;3.62;2.87;;;;;;;30.24;30.93;100331.64;1991364;88;29398;-68
2021/06/28 12:02:26;;;;;;;2.98;2.55;;;;;;;30.19;31.60;100335.02;1950519;89;27625;-68
2021/06/28 12:05:28;;;;;;;3.33;3.02;;;;;;;30.13;31.19;100333.07;1958501;90;28611;-68
2021/06/28 12:08:29;;;;;;;3.67;3.10;;;;;;;29.98;30.65;100338.20;1976174;89;31174;-68
2021/06/28 12:11:31;;;;;;;3.77;3.45;;;;;;;29.82;29.84;100332.97;1962859;88;32915;-68
2021/06/28 12:14:46;;;;;;;4.70;3.10;;;;;;;29.67;29.08;100325.66;2018406;87;29292;-68
2021/06/28 12:17:48;;;;;;;4.03;3.00;;;;;;;29.58;28.42;100327.39;2029812;86;27586;-68
2021/06/28 12:20:57;;;;;;;3.87;3.47;;;;;;;29.45;28.35;100320.72;2025321;86;28604;-68
2021/06/28 12:24:09;;;;;;;2.75;2.52;;;;;;;29.33;28.46;100319.51;2025114;87;31837;-68
2021/06/28 12:27:17;;;;;;;4.47;3.40;;;;;;;29.22;29.63;100317.63;2028425;86;32960;-67
2021/06/28 12:30:21;;;;;;;5.08;3.77;;;;;;;29.13;29.31;100316.59;2068345;86;30304;-68
2021/06/28 12:33:23;;;;;;;4.20;3.25;;;;;;;29.07;29.70;100311.34;2068419;86;27608;-68
2021/06/28 12:36:26;;;;;;;3.92;3.55;;;;;;;29.05;29.93;100306.55;2068458;86;28774;-75
2021/06/28 12:39:28;;;;;;;3.72;3.42;;;;;;;29.04;29.71;100308.97;2065583;86;31808;-68
2021/06/28 12:42:36;;;;;;;3.67;2.40;;;;;;;28.99;29.70;100305.44;2067986;86;33093;-68
2021/06/28 12:45:42;;;;;;;3.85;3.37;;;;;;;28.98;29.52;100305.61;2068060;85;29391;-69
2021/06/28 12:48:46;;;;;;;3.30;3.00;;;;;;;28.93;29.44;100305.70;2065724;86;27519;-69
2021/06/28 12:51:47;;;;;;;3.05;2.85;;;;;;;28.88;30.00;100299.05;2068440;86;28672;-69
2021/06/28 12:55:24;;;;;;;3.35;3.05;;;;;;;28.82;30.09;100299.84;2068315;86;31034;-67
2021/06/28 12:58:25;;;;;;;2.75;2.52;;;;;;;28.81;29.65;100296.22;2051032;86;32964;-69
2021/06/28 13:01:39;;;;;;;4.55;3.05;;;;;;;28.74;30.02;100296.70;2028409;87;29377;-67
2021/06/28 13:04:41;;;;;;;6.15;3.60;;;;;;;28.74;30.75;100292.56;2028501;87;37234;-69
2021/06/28 13:07:43;;;;;;;3.67;3.00;;;;;;;28.74;30.33;100296.70;2030279;86;28624;-69
2021/06/28 13:11:02;;;;;;;3.65;3.25;;;;;;;28.72;30.68;100298.22;2025106;88;31112;-70
2021/06/28 13:14:09;;;;;;;5.25;2.90;;;;;;;28.72;29.94;100291.33;2006652;88;33756;-70
2021/06/28 13:17:26;;;;;;;3.30;3.00;;;;;;;28.69;30.32;100286.23;1993827;88;29543;-70
2021/06/28 13:20:20;;;;;;;3.08;2.87;;;;;;;28.68;30.76;100287.79;2039628;86;27497;-69
2021/06/28 13:23:23;;;;;;;5.20;3.05;;;;;;;28.68;30.80;100293.30;2039614;87;28609;-70
2021/06/28 13:26:32;;;;;;;3.50;3.20;;;;;;;28.65;30.56;100288.50;2039723;86;30986;-69
2021/06/28 13:29:38;;;;;;;6.35;3.50;;;;;;;28.64;30.13;100292.84;2016165;86;32944;-68
2021/06/28 13:32:40;;;;;;;4.47;3.30;;;;;;;28.63;30.28;100289.22;1995401;87;29285;-68
2021/06/28 13:35:47;;;;;;;3.55;3.17;;;;;;;28.61;29.88;100287.21;2002909;87;27545;-69
2021/06/28 13:38:52;;;;;;;3.52;2.80;;;;;;;28.57;30.31;100277.63;1994564;87;28627;-68
2021/06/28 13:41:54;;;;;;;3.90;3.42;;;;;;;28.57;30.47;100287.27;2005726;87;31164;-66
2021/06/28 13:45:14;;;;;;;4.15;2.92;;;;;;;28.58;30.12;100283.46;2045584;87;33177;-65
2021/06/28 13:48:17;;;;;;;5.20;2.83;;;;;;;28.59;29.74;100288.44;2040649;87;29256;-67
2021/06/28 13:51:19;;;;;;;3.52;2.95;;;;;;;28.55;29.71;100280.22;2055216;86;27781;-66
2021/06/28 13:54:22;;;;;;;4.12;3.35;;;;;;;28.54;29.70;100279.38;2056578;86;28023;-67
2021/06/28 13:57:23;;;;;;;3.95;2.70;;;;;;;28.54;29.82;100281.30;2032836;86;31129;-66
2021/06/28 14:00:31;;;;;;;5.35;2.90;;;;;;;28.55;30.37;100276.09;2056570;86;32928;-68
2021/06/28 14:03:32;;;;;;;3.50;3.20;;;;;;;28.54;29.42;100278.00;2032571;87;28982;-66
2021/06/28 14:06:34;;;;;;;4.90;3.62;;;;;;;28.48;29.64;100272.75;2047470;86;27605;-67